Illizi, Algeria
Current Conditions -  °F | °C
As of 5:00 AM on Tuesday 23 Dec 2014 (Local Time) from DAAP Reporting Station
Clear Clear  
Wind Chill: 30°   Ceiling: Unl
Heat Index: 37°   Visibility: 6mi
Dew Point: 30°   Wind: 12mph
Humidity: 75%   Direction: 100°E
Pressure: 30.36"   Gusts: NA
Location:  26.5°N, 8.42°E
Report Text: DAAP 230400Z 10010KT CAVOK 03/M01 Q1028
Loading
Personal Weather Stations






























Interactive Weather Map New forecast layout! Learn more

10-Day Weather Forecast

Advertisements
Track Severe Weather on mobile